Latest Weather Observations for Double Island Point

IDQ60801

Issued at 1:02 pm EST Tuesday 3 March 2015 (issued every 30 minutes, with the page automatically refreshed every 10 minutes)

About weather observations | Map of weather stations | Latest weather observations for QLD | Other Formats
Station Details ID: 040068 Name: DOUBLE ISLAND POINT LIGHTHOUSE Lat: -25.93 Lon: 153.19 Height: 95.64 m
Data from the previous 72 hours. | See also: Recent months at Double Island Point
Date/Time
EST
Temp
°C
App
Temp
°C
Dew
Point
Rel
Hum
%
Delta-T
°C
Wind Press
QNH
hPa
Press
MSL
hPa
Rain
since 9 am
mm
Dir
 
Spd
km/h
Gust
km/h
Spd
kts
Gust
kts
03/01:00pm 25.9 22.0 18.8 65 4.5 SE 37 41 20 22 1013.9 1013.4 0.0
03/12:30pm 27.6 24.1 19.7 62 5.2 SE 37 43 20 23 1014.1 1013.6 0.0
03/12:00pm 27.2 23.8 19.0 61 5.3 SE 35 41 19 22 1014.6 1014.1 0.0
03/11:30am 27.3 23.8 19.6 62 5.0 SE 37 41 20 22 1014.9 1014.4 0.0
03/11:00am 27.3 23.9 19.1 61 5.3 SE 35 41 19 22 1015.1 1014.6 0.0
03/10:30am 27.1 23.6 18.7 60 5.4 SE 35 39 19 21 1015.2 1014.7 0.0
03/10:00am 27.0 23.5 18.8 60 5.3 SE 35 41 19 22 1015.2 1014.7 0.0
03/09:30am 26.6 22.5 19.2 64 4.8 SE 39 41 21 22 1015.0 1014.5 0.0
03/09:00am 26.5 22.9 19.4 65 4.6 SE 37 41 20 22 1014.9 1014.4 2.0
03/08:30am 26.2 22.0 18.8 63 4.7 SE 39 44 21 24 1014.8 1014.3 2.0
03/08:00am 26.0 21.6 19.4 67 4.3 SE 41 46 22 25 1014.5 1014.0 2.0
03/07:30am 25.9 22.1 19.8 69 4.0 SE 39 44 21 24 1014.2 1013.7 2.0
03/07:00am 25.4 20.7 19.5 70 3.8 SE 43 48 23 26 1013.9 1013.4 2.0
03/06:30am 24.8 20.1 19.4 72 3.5 SE 43 48 23 26 1013.8 1013.3 2.0
03/06:00am 24.8 21.2 20.1 75 3.1 SE 39 44 21 24 1013.5 1013.0 2.0
03/05:30am 24.6 20.4 19.7 74 3.2 SE 41 46 22 25 1013.1 1012.7 2.0
03/05:00am 24.3 20.3 19.4 74 3.2 ESE 39 44 21 24 1012.8 1012.4 2.0
03/04:30am 24.2 19.3 19.1 73 3.3 SE 43 46 23 25 1012.7 1012.3 2.0
03/04:15am 23.9 21.5 20.4 81 2.3 SE 33 43 18 23 1012.7 1012.3 2.0
03/04:00am 23.2 20.9 20.5 85 1.8 SSE 33 43 18 23 1012.8 1012.4 2.0
03/03:30am 24.5 21.1 18.9 71 3.6 ESE 35 41 19 22 1012.7 1012.3 2.0
03/03:00am 24.7 21.2 19.5 73 3.4 SE 37 43 20 23 1012.7 1012.3 2.0
03/02:30am 24.6 20.9 19.9 75 3.0 SE 39 44 21 24 1012.5 1012.0 2.0
03/02:00am 24.8 20.1 19.4 72 3.5 SE 43 46 23 25 1012.7 1012.3 2.0
03/01:30am 24.8 20.2 19.6 73 3.4 SE 43 48 23 26 1012.9 1012.5 2.0
03/01:00am 24.8 19.5 19.4 72 3.5 SE 46 50 25 27 1013.3 1012.9 2.0
03/12:30am 24.9 18.8 19.3 71 3.6 SE 50 56 27 30 1013.3 1012.9 2.0
03/12:00am 24.8 18.9 19.8 74 3.2 SE 50 57 27 31 1013.6 1013.1 2.0
 
Date/Time
EST
Temp
°C
App
Temp
°C
Dew
Point
Rel
Hum
%
Delta-T
°C
Wind Press
QNH
hPa
Press
MSL
hPa
Rain
since 9 am
mm
Dir
 
Spd
km/h
Gust
km/h
Spd
kts
Gust
kts
02/11:30pm 24.9 17.8 19.7 73 3.4 SE 56 61 30 33 1013.5 1013.0 2.0
02/11:00pm 24.9 18.7 19.9 74 3.2 SE 52 57 28 31 1013.7 1013.2 2.0
02/10:30pm 24.9 19.4 20.6 77 2.8 SE 50 56 27 30 1013.8 1013.3 2.0
02/10:00pm 25.0 19.7 20.9 78 2.7 SE 50 59 27 32 1013.9 1013.4 2.0
02/09:30pm 25.2 19.3 20.5 75 3.1 SE 52 56 28 30 1013.8 1013.3 2.0
02/09:00pm 25.2 20.5 20.7 76 3.0 SE 46 54 25 29 1013.8 1013.3 2.0
02/08:30pm 25.2 20.5 20.7 76 3.0 SE 46 54 25 29 1013.6 1013.1 2.0
02/08:00pm 25.1 20.3 20.4 75 3.1 SE 46 54 25 29 1013.2 1012.8 2.0
02/07:30pm 25.2 19.4 20.0 73 3.4 SE 50 56 27 30 1012.8 1012.4 2.0
02/07:00pm 25.2 20.7 20.2 74 3.3 SE 44 52 24 28 1012.5 1012.0 2.0
02/06:30pm 25.2 19.9 20.2 74 3.3 SE 48 56 26 30 1012.1 1011.6 2.0
02/06:00pm 25.3 21.5 20.5 75 3.1 SE 41 46 22 25 1011.9 1011.4 2.0
02/05:30pm 25.3 21.5 20.5 75 3.1 SE 41 46 22 25 1011.6 1011.1 2.0
02/05:00pm 25.5 21.1 20.5 74 3.3 SE 44 48 24 26 1011.2 1010.7 2.0
02/04:30pm 25.5 21.2 20.7 75 3.2 SE 44 50 24 27 1011.1 1010.6 2.0
02/04:00pm 25.7 21.5 20.9 75 3.2 SE 44 50 24 27 1010.7 1010.2 2.0
02/03:30pm 25.5 22.7 21.8 80 2.5 SE 39 44 21 24 1010.8 1010.3 2.0
02/03:00pm 25.2 21.8 21.3 79 2.6 SE 41 46 22 25 1010.7 1010.2 2.0
02/02:30pm 25.0 22.0 20.7 77 2.8 SE 37 43 20 23 1011.0 1010.5 2.0
02/02:00pm 23.7 20.5 21.8 89 1.3 SE 41 50 22 27 1011.1 1010.6 2.0
02/01:37pm 25.5 22.3 21.0 76 3.0 SE 39 57 21 31 1011.2 1010.7 0.0
02/01:30pm 26.3 22.6 20.8 71 3.6 SE 41 46 22 25 1011.4 1010.9 0.0
02/01:00pm 27.2 24.5 21.2 69 4.0 SSE 37 44 20 24 1011.5 1011.0 0.0
02/12:30pm 27.0 25.0 21.1 70 3.9 SSE 33 39 18 21 1011.8 1011.3 0.0
02/12:00pm 27.0 25.3 21.3 71 3.8 SSE 32 39 17 21 1011.9 1011.4 0.0
02/11:30am 26.8 25.5 21.3 72 3.7 SSE 30 39 16 21 1012.2 1011.7 0.0
02/11:00am 27.1 26.7 21.6 72 3.7 SSE 26 33 14 18 1012.5 1012.0 0.0
02/10:30am 27.1 27.1 21.6 72 3.7 SSE 24 33 13 18 1012.4 1011.9 0.0
02/10:00am 26.7 26.7 21.7 74 3.3 SSE 24 33 13 18 1012.6 1012.2 0.0
02/09:30am 26.2 26.0 21.2 74 3.3 SSE 24 30 13 16 1012.5 1012.0 0.0
02/09:00am 25.8 26.5 21.5 77 2.9 SSE 20 26 11 14 1012.4 1011.9 0.0
02/08:30am 24.9 24.2 21.0 79 2.6 SSE 26 32 14 17 1012.4 1011.9 0.0
02/08:00am 24.4 24.0 20.9 81 2.3 S 24 32 13 17 1012.1 1011.6 0.0
02/07:30am 24.5 25.0 21.2 82 2.2 S 20 28 11 15 1011.9 1011.4 0.0
02/07:00am 24.3 25.7 21.0 82 2.2 S 15 19 8 10 1011.7 1011.2 0.0
02/06:30am 23.9 25.9 20.8 83 2.0 SSE 11 13 6 7 1011.3 1010.8 0.0
02/06:00am 24.0 26.1 20.1 79 2.5 S 9 11 5 6 1010.9 1010.4 0.0
02/05:30am 23.7 25.8 20.2 81 2.3 S 9 11 5 6 1010.5 1010.0 0.0
02/05:00am 23.7 25.8 20.2 81 2.3 S 9 9 5 5 1010.1 1009.6 0.0
02/04:30am 23.7 26.4 20.2 81 2.3 S 6 7 3 4 1009.9 1009.4 0.0
02/04:00am 23.8 26.5 20.3 81 2.3 SSW 6 7 3 4 1009.7 1009.2 0.0
02/03:30am 23.8 27.6 20.1 80 2.4 CALM 0 0 0 0 1009.4 1008.9 0.0
02/03:00am 23.7 26.2 20.2 81 2.3 SSW 7 9 4 5 1009.6 1009.1 0.0
02/02:30am 23.9 27.7 20.2 80 2.4 CALM 0 0 0 0 1009.9 1009.4 0.0
02/02:00am 24.0 26.6 20.5 81 2.3 WSW 7 9 4 5 1010.0 1009.5 0.0
02/01:30am 24.0 26.6 20.1 79 2.5 NNW 6 9 3 5 1010.0 1009.5 0.0
02/01:00am 24.0 27.0 20.1 79 2.5 N 4 7 2 4 1009.7 1009.2 0.0
02/12:30am 24.1 26.5 20.0 78 2.7 NNW 7 13 4 7 1009.9 1009.4 0.0
02/12:00am 24.1 27.1 20.0 78 2.7 N 4 9 2 5 1010.0 1009.5 0.0
 
Date/Time
EST
Temp
°C
App
Temp
°C
Dew
Point
Rel
Hum
%
Delta-T
°C
Wind Press
QNH
hPa
Press
MSL
hPa
Rain
since 9 am
mm
Dir
 
Spd
km/h
Gust
km/h
Spd
kts
Gust
kts
01/11:30pm 24.2 25.5 20.1 78 2.7 NNE 13 17 7 9 1010.1 1009.6 0.0
01/11:00pm 24.5 26.6 20.2 77 2.8 NE 9 13 5 7 1010.3 1009.8 0.0
01/10:30pm 24.4 26.0 19.9 76 2.9 NE 11 17 6 9 1010.5 1010.0 0.0
01/10:00pm 24.6 26.3 20.1 76 2.9 NE 11 17 6 9 1010.5 1010.0 0.0
01/09:30pm 24.7 25.5 19.8 74 3.2 NE 15 19 8 10 1010.3 1009.8 0.0
01/09:00pm 24.8 25.2 19.8 74 3.2 ENE 17 20 9 11 1010.5 1010.0 0.0
01/08:30pm 25.0 25.5 20.0 74 3.3 ENE 17 22 9 12 1010.4 1009.9 0.0
01/08:00pm 24.9 25.5 19.5 72 3.5 ENE 15 19 8 10 1009.9 1009.4 0.0
01/07:30pm 25.0 25.3 19.6 72 3.5 ENE 17 20 9 11 1009.6 1009.1 0.0
01/07:00pm 25.0 25.4 19.8 73 3.4 ENE 17 20 9 11 1009.1 1008.6 0.0
01/06:30pm 25.1 24.8 19.5 71 3.6 ENE 20 22 11 12 1008.8 1008.3 0.0
01/06:00pm 25.7 26.1 19.8 70 3.8 ENE 17 20 9 11 1008.9 1008.4 0.0
01/05:30pm 26.3 26.7 19.9 68 4.2 E 17 22 9 12 1008.5 1008.0 0.0
01/05:00pm 26.7 27.0 19.6 65 4.6 E 17 22 9 12 1008.6 1008.1 0.0
01/04:30pm 26.8 27.1 19.7 65 4.6 E 17 20 9 11 1008.4 1007.9 0.0
01/04:00pm 27.3 27.6 19.6 62 5.0 E 17 20 9 11 1008.5 1008.0 0.0
01/03:30pm 27.7 27.8 20.0 63 5.0 E 19 22 10 12 1008.6 1008.1 0.0
01/03:00pm 27.9 28.1 20.2 63 5.1 E 19 22 10 12 1008.7 1008.2 0.0
01/02:30pm 28.5 29.4 20.8 63 5.1 E 17 24 9 13 1008.8 1008.3 0.0
01/02:00pm 28.4 28.6 20.1 60 5.5 E 19 20 10 11 1009.2 1008.7 0.0
01/01:30pm 28.3 28.5 20.1 61 5.4 E 19 20 10 11 1009.3 1008.8 0.0
01/01:00pm 28.2 29.1 20.0 61 5.4 E 15 19 8 10 1009.7 1009.2 0.0
01/12:30pm 29.0 30.5 21.2 62 5.2 E 15 19 8 10 1010.1 1009.6 0.0
01/12:00pm 28.6 30.0 20.3 60 5.5 E 13 19 7 10 1010.3 1009.8 0.0
01/11:30am 28.1 29.3 19.9 61 5.4 ESE 13 17 7 9 1010.5 1010.0 0.0
01/11:00am 28.7 30.4 21.0 63 5.1 ESE 13 15 7 8 1010.9 1010.4 0.0
01/10:30am 28.6 30.4 21.1 64 5.0 E 13 17 7 9 1011.2 1010.7 0.0
01/10:00am 27.8 29.5 20.1 63 5.1 E 11 15 6 8 1011.2 1010.7 0.0
01/09:30am 27.6 28.9 19.4 61 5.3 E 11 13 6 7 1011.3 1010.8 0.0
01/09:00am 27.9 29.7 21.2 67 4.5 ESE 13 15 7 8 1011.2 1010.7 0.0
01/08:30am 27.5 29.3 20.3 65 4.7 ESE 11 15 6 8 1011.0 1010.5 0.0
01/08:00am 27.3 29.1 20.4 66 4.5 E 11 15 6 8 1010.7 1010.2 0.0
01/07:30am 27.2 29.1 20.5 67 4.4 E 11 15 6 8 1010.3 1009.8 0.0
01/07:00am 26.3 27.7 20.4 70 3.9 E 13 15 7 8 1010.3 1009.8 0.0
01/06:30am 25.4 27.2 20.4 74 3.3 E 11 15 6 8 1010.2 1009.7 0.0
01/06:00am 24.0 25.2 19.9 78 2.7 E 13 13 7 7 1010.0 1009.5 0.0
01/05:30am 23.8 24.9 19.7 78 2.6 E 13 15 7 8 1009.8 1009.3 0.0
01/05:00am 24.0 25.0 19.5 76 2.9 E 13 15 7 8 1009.6 1009.1 0.0
01/04:30am 24.1 24.9 19.8 77 2.8 ENE 15 17 8 9 1009.5 1009.0 0.0
01/04:00am 24.1 25.1 20.2 79 2.5 E 15 19 8 10 1009.4 1008.9 0.0
01/03:30am 23.9 25.0 19.6 77 2.8 E 13 17 7 9 1009.4 1008.9 0.0
01/03:00am 24.0 24.3 19.5 76 2.9 E 17 20 9 11 1009.2 1008.7 0.0
01/02:30am 24.2 24.3 19.9 77 2.8 ENE 19 20 10 11 1009.2 1008.7 0.0
01/02:00am 24.1 25.0 20.0 78 2.7 ENE 15 17 8 9 1009.4 1008.9 0.0
01/01:30am 24.2 24.9 19.7 76 2.9 ENE 15 19 8 10 1010.0 1009.5 0.0
01/01:00am 24.2 24.2 19.7 76 2.9 E 19 20 10 11 1010.2 1009.7 0.0
01/12:30am 24.2 24.1 19.5 75 3.0 E 19 22 10 12 1010.6 1010.1 0.0
01/12:00am 24.5 25.1 20.2 77 2.8 E 17 24 9 13 1010.9 1010.4 0.0
 
Date/Time
EST
Temp
°C
App
Temp
°C
Dew
Point
Rel
Hum
%
Delta-T
°C
Wind Press
QNH
hPa
Press
MSL
hPa
Rain
since 9 am
mm
Dir
 
Spd
km/h
Gust
km/h
Spd
kts
Gust
kts
28/11:30pm 24.2 24.1 19.5 75 3.0 E 19 22 10 12 1011.2 1010.7 0.0
28/11:00pm 24.3 24.5 19.4 74 3.2 E 17 20 9 11 1011.3 1010.8 0.0
28/10:30pm 24.6 24.4 19.7 74 3.2 E 20 24 11 13 1011.2 1010.7 0.0
28/10:00pm 24.8 24.8 20.1 75 3.1 ENE 20 22 11 12 1011.2 1010.7 0.0
28/09:30pm 24.7 24.6 20.0 75 3.1 E 20 24 11 13 1011.0 1010.5 0.0
28/09:00pm 24.7 23.9 19.3 72 3.5 E 22 26 12 14 1011.0 1010.5 0.0
28/08:30pm 24.9 24.3 19.7 73 3.4 E 22 26 12 14 1011.0 1010.5 0.0
28/08:00pm 24.8 23.6 19.2 71 3.6 E 24 30 13 16 1010.8 1010.3 0.0
28/07:30pm 25.1 23.8 19.9 73 3.4 E 26 32 14 17 1010.5 1010.0 0.0
28/07:00pm 25.0 24.1 19.8 73 3.4 E 24 30 13 16 1010.2 1009.7 0.0
28/06:30pm 25.0 24.0 19.6 72 3.5 E 24 28 13 15 1009.8 1009.3 0.0
28/06:00pm 25.3 24.7 19.7 71 3.6 E 22 26 12 14 1009.8 1009.3 0.0
28/05:30pm 25.8 24.8 19.7 69 4.0 E 24 28 13 15 1009.5 1009.0 0.0
28/05:00pm 26.2 26.5 20.3 70 3.9 E 19 24 10 13 1009.3 1008.8 0.0
28/04:30pm 26.5 25.9 20.6 70 3.9 E 24 30 13 16 1009.0 1008.5 0.0
28/04:00pm 26.7 25.7 20.5 69 4.1 E 26 32 14 17 1008.9 1008.4 0.0
28/03:30pm 27.1 25.8 20.7 68 4.2 ESE 28 32 15 17 1008.9 1008.4 0.0
28/03:00pm 27.4 27.2 20.5 66 4.6 ESE 22 28 12 15 1009.0 1008.5 0.0
28/02:30pm 27.6 26.9 20.2 64 4.9 ESE 24 28 13 15 1009.2 1008.7 0.0
28/02:00pm 27.5 26.6 19.8 63 5.0 ESE 24 28 13 15 1009.4 1008.9 0.0
28/01:30pm 28.1 28.1 20.9 65 4.8 SE 22 26 12 14 1009.8 1009.3 0.0

Other Formats:

Comma delimited format used in spreadsheet applications
http://www.bom.gov.au/fwo/IDQ60801/IDQ60801.94584.axf

JavaScript Object Notation format (JSON) in row-major order
http://www.bom.gov.au/fwo/IDQ60801/IDQ60801.94584.json